createdAt,value
2017-12-25T00:01:38.742Z,70.10
2017-12-25T00:04:06.259Z,70.00
2017-12-25T00:06:33.750Z,70.20
2017-12-25T00:09:01.248Z,70.20
2017-12-25T00:11:30.124Z,70.00
2017-12-25T00:13:57.700Z,70.00
2017-12-25T00:16:25.973Z,70.00
2017-12-25T00:18:54.236Z,70.00
2017-12-25T00:21:21.836Z,70.00
2017-12-25T00:23:50.084Z,70.00
2017-12-25T00:26:17.552Z,69.90
2017-12-25T00:28:46.741Z,70.60
2017-12-25T00:31:14.840Z,70.10
2017-12-25T00:33:43.097Z,70.10
2017-12-25T00:36:10.576Z,70.10
2017-12-25T00:38:38.832Z,70.20
2017-12-25T00:41:06.440Z,70.20
2017-12-25T00:43:34.687Z,70.10
2017-12-25T00:46:02.280Z,70.00
2017-12-25T00:48:30.540Z,70.10
2017-12-25T00:50:58.052Z,70.10
2017-12-25T00:53:25.604Z,70.10
2017-12-25T00:55:53.108Z,70.00
2017-12-25T00:58:21.105Z,70.00
2017-12-25T01:00:48.601Z,70.10
2017-12-25T01:03:16.870Z,69.70
2017-12-25T01:05:45.132Z,69.60
2017-12-25T01:08:12.604Z,69.50
2017-12-25T01:13:15.690Z,69.80
2017-12-25T01:15:45.666Z,69.50
2017-12-25T01:18:13.156Z,69.70
2017-12-25T01:20:40.687Z,69.50
2017-12-25T01:23:08.170Z,69.60
2017-12-25T01:25:35.701Z,69.70
2017-12-25T01:28:03.949Z,69.60
2017-12-25T01:30:31.476Z,69.50
2017-12-25T01:32:58.983Z,69.40
2017-12-25T01:35:26.488Z,69.40
2017-12-25T01:37:53.972Z,69.30
2017-12-25T01:40:21.475Z,69.30
2017-12-25T01:42:48.977Z,69.10
2017-12-25T01:45:16.818Z,69.20
2017-12-25T01:47:45.076Z,68.60
2017-12-25T01:50:12.581Z,68.60
2017-12-25T01:52:40.989Z,68.80
2017-12-25T01:55:08.493Z,69.00
2017-12-25T01:57:49.442Z,69.00
2017-12-25T02:00:43.498Z,69.10
2017-12-25T02:03:10.975Z,68.70
2017-12-25T02:05:47.244Z,68.60
2017-12-25T02:08:30.207Z,68.40
2017-12-25T02:10:58.073Z,68.60
2017-12-25T02:13:26.395Z,68.30
2017-12-25T02:15:53.877Z,68.30
2017-12-25T02:18:21.484Z,68.10
2017-12-25T02:20:49.740Z,68.30
2017-12-25T02:23:18.004Z,68.10
2017-12-25T02:25:45.490Z,68.10
2017-12-25T02:28:13.780Z,67.60
2017-12-25T02:30:42.056Z,67.70
2017-12-25T02:33:10.323Z,67.40
2017-12-25T02:35:37.826Z,67.30
2017-12-25T02:38:05.329Z,68.10
2017-12-25T02:40:32.803Z,67.00
2017-12-25T02:43:00.383Z,67.10
2017-12-25T02:45:28.645Z,67.00
2017-12-25T02:47:56.239Z,67.00
2017-12-25T02:50:24.501Z,67.00
2017-12-25T02:52:52.602Z,67.00
2017-12-25T02:55:20.868Z,66.60
2017-12-25T02:57:49.122Z,67.40
2017-12-25T03:00:16.613Z,66.60
2017-12-25T03:02:44.871Z,66.70
2017-12-25T03:05:12.374Z,66.60
2017-12-25T03:07:40.667Z,66.40
2017-12-25T03:10:08.960Z,66.50
2017-12-25T03:12:37.424Z,66.20
2017-12-25T03:15:04.907Z,65.90
2017-12-25T03:17:32.398Z,66.00
2017-12-25T03:20:00.000Z,65.70
2017-12-25T03:22:28.433Z,65.60
2017-12-25T03:24:56.114Z,65.60
2017-12-25T03:27:23.703Z,65.60
2017-12-25T03:29:51.209Z,65.90
2017-12-25T03:32:18.688Z,66.40
2017-12-25T03:34:46.197Z,65.70
2017-12-25T03:37:14.520Z,65.20
2017-12-25T03:39:41.999Z,65.20
2017-12-25T03:42:09.502Z,65.40
2017-12-25T03:44:37.802Z,65.40
2017-12-25T03:47:06.074Z,65.20
2017-12-25T03:49:35.595Z,65.30
2017-12-25T03:52:03.101Z,65.20
2017-12-25T03:54:31.924Z,65.20
2017-12-25T03:56:59.409Z,64.80
2017-12-25T03:59:26.947Z,64.20
2017-12-25T04:01:54.564Z,63.70
2017-12-25T04:04:22.087Z,63.80
2017-12-25T04:06:49.990Z,63.70
2017-12-25T04:09:17.525Z,63.60
2017-12-25T04:11:46.108Z,64.00
2017-12-25T04:14:14.118Z,63.30
2017-12-25T04:16:41.650Z,63.10
2017-12-25T04:19:09.177Z,62.80
2017-12-25T04:21:36.927Z,63.50
2017-12-25T04:24:04.462Z,62.70
2017-12-25T04:26:31.989Z,62.40
2017-12-25T04:28:59.568Z,62.00
2017-12-25T04:31:28.800Z,62.20
2017-12-25T04:33:56.284Z,61.90
2017-12-25T04:36:24.369Z,62.30
2017-12-25T04:38:51.902Z,62.80
2017-12-25T04:41:19.406Z,62.90
2017-12-25T04:43:47.022Z,63.10
2017-12-25T04:46:15.307Z,63.80
2017-12-25T04:48:42.857Z,63.80
2017-12-25T04:51:11.124Z,64.80
2017-12-25T04:53:38.606Z,64.70
2017-12-25T04:56:06.881Z,66.00
2017-12-25T04:58:35.168Z,66.50
2017-12-25T05:01:03.747Z,66.70
2017-12-25T05:03:32.362Z,68.10
2017-12-25T05:06:00.800Z,68.10
2017-12-25T05:08:30.680Z,68.30
2017-12-25T05:10:58.144Z,68.20
2017-12-25T05:13:25.766Z,68.60
2017-12-25T05:15:54.349Z,68.90
2017-12-25T05:18:22.645Z,68.80
2017-12-25T05:20:50.893Z,69.00
2017-12-25T05:23:18.384Z,68.90
2017-12-25T05:25:46.676Z,69.00
2017-12-25T05:28:14.181Z,69.00
2017-12-25T05:30:41.664Z,69.20
2017-12-25T05:33:09.139Z,69.30
2017-12-25T05:35:37.430Z,69.90
2017-12-25T05:38:06.253Z,70.00
2017-12-25T05:40:34.100Z,69.90
2017-12-25T05:43:02.358Z,70.20
2017-12-25T05:45:29.848Z,70.20
2017-12-25T05:47:58.107Z,70.80
2017-12-25T05:50:25.666Z,70.80
2017-12-25T05:52:53.198Z,71.90
2017-12-25T05:55:20.670Z,71.60
2017-12-25T05:57:48.166Z,71.70
2017-12-25T06:00:16.423Z,72.10
2017-12-25T06:02:43.916Z,72.00
2017-12-25T06:05:12.176Z,72.20
2017-12-25T06:07:39.669Z,72.20
2017-12-25T06:10:07.190Z,72.10
2017-12-25T06:12:35.508Z,71.80
2017-12-25T06:15:03.789Z,72.60
2017-12-25T06:17:31.340Z,72.60
2017-12-25T06:19:59.589Z,72.60
2017-12-25T06:22:27.105Z,72.60
2017-12-25T06:24:54.597Z,72.80
2017-12-25T06:27:22.081Z,72.50
2017-12-25T06:29:49.765Z,71.90
2017-12-25T06:32:18.201Z,71.20
2017-12-25T06:34:45.701Z,71.60
2017-12-25T06:37:13.312Z,71.50
2017-12-25T06:39:40.794Z,71.10
2017-12-25T06:42:08.317Z,71.40
2017-12-25T06:44:36.570Z,71.10
2017-12-25T06:47:04.193Z,70.90
2017-12-25T06:49:31.729Z,70.80
2017-12-25T06:51:59.969Z,70.30
2017-12-25T06:54:27.505Z,70.30
2017-12-25T06:56:54.980Z,70.30
2017-12-25T06:59:22.506Z,70.50
2017-12-25T07:01:51.521Z,70.70
2017-12-25T07:04:19.101Z,70.70
2017-12-25T07:06:46.590Z,70.10
2017-12-25T07:09:14.198Z,70.00
2017-12-25T07:11:42.487Z,70.30
2017-12-25T07:14:10.036Z,70.20
2017-12-25T07:16:38.301Z,69.70
2017-12-25T07:19:05.806Z,69.70
2017-12-25T07:21:33.299Z,69.30
2017-12-25T07:24:00.810Z,69.60
2017-12-25T07:26:29.053Z,69.60
2017-12-25T07:28:56.535Z,69.50
2017-12-25T07:31:24.013Z,69.50
2017-12-25T07:33:52.602Z,69.50
2017-12-25T07:36:20.854Z,69.30
2017-12-25T07:38:48.353Z,69.30
2017-12-25T07:41:15.844Z,69.20
2017-12-25T07:43:43.395Z,69.20
2017-12-25T07:46:10.869Z,69.20
2017-12-25T07:48:38.823Z,69.10
2017-12-25T07:51:07.153Z,69.00
2017-12-25T07:53:36.043Z,68.50
2017-12-25T07:56:03.542Z,68.50
2017-12-25T07:58:31.790Z,68.40
2017-12-25T08:00:59.298Z,68.40
2017-12-25T08:03:27.555Z,66.90
2017-12-25T08:05:55.841Z,66.80
2017-12-25T08:08:23.334Z,67.80
2017-12-25T08:10:50.836Z,66.50
2017-12-25T08:13:18.377Z,66.50
2017-12-25T08:15:45.861Z,66.50
2017-12-25T08:18:13.342Z,66.50
2017-12-25T08:20:40.981Z,66.60
2017-12-25T08:23:08.448Z,66.30
2017-12-25T08:25:35.945Z,65.90
2017-12-25T08:28:04.196Z,65.30
2017-12-25T08:30:32.306Z,65.30
2017-12-25T08:33:00.597Z,64.90
2017-12-25T08:35:28.877Z,65.00
2017-12-25T08:37:57.125Z,64.90
2017-12-25T08:40:26.161Z,64.60
2017-12-25T08:42:53.718Z,65.10
2017-12-25T08:45:22.102Z,64.40
2017-12-25T08:47:49.603Z,64.40
2017-12-25T08:50:17.100Z,64.00
2017-12-25T08:52:44.673Z,63.90
2017-12-25T08:55:13.735Z,62.80
2017-12-25T08:57:41.415Z,63.10
2017-12-25T09:00:09.106Z,63.10
2017-12-25T09:02:36.589Z,62.80
2017-12-25T09:05:04.146Z,62.60
2017-12-25T09:07:32.405Z,62.30
2017-12-25T09:10:00.831Z,62.40
2017-12-25T09:12:28.339Z,62.40
2017-12-25T09:14:55.857Z,61.90
2017-12-25T09:17:23.346Z,62.00
2017-12-25T09:19:50.835Z,61.60
2017-12-25T09:22:18.331Z,61.10
2017-12-25T09:24:46.924Z,60.90
2017-12-25T09:27:14.414Z,60.90
2017-12-25T09:29:41.889Z,60.80
2017-12-25T09:32:09.392Z,60.70
2017-12-25T09:34:37.669Z,60.00
2017-12-25T09:37:05.652Z,60.00
2017-12-25T09:39:33.912Z,60.00
2017-12-25T09:42:01.527Z,59.90
2017-12-25T09:44:29.020Z,59.90
2017-12-25T09:46:56.950Z,59.80
2017-12-25T09:49:24.547Z,59.80
2017-12-25T09:51:52.049Z,59.70
2017-12-25T09:54:19.544Z,59.50
2017-12-25T09:56:47.805Z,59.50
2017-12-25T09:59:16.137Z,59.50
2017-12-25T10:01:43.657Z,59.50
2017-12-25T10:04:11.930Z,61.10
2017-12-25T10:06:40.213Z,62.90
2017-12-25T10:09:07.729Z,62.20
2017-12-25T10:11:35.225Z,63.00
2017-12-25T10:14:02.724Z,63.40
2017-12-25T10:16:30.234Z,63.70
2017-12-25T10:18:57.720Z,64.00
2017-12-25T10:21:25.956Z,64.20
2017-12-25T10:23:54.206Z,64.20
2017-12-25T10:26:21.860Z,64.20
2017-12-25T10:28:51.173Z,64.70
2017-12-25T10:31:19.161Z,64.50
2017-12-25T10:33:46.701Z,64.40
2017-12-25T10:36:15.039Z,64.20
2017-12-25T10:38:42.548Z,64.30
2017-12-25T10:41:10.835Z,63.70
2017-12-25T10:43:39.086Z,63.50
2017-12-25T10:46:06.597Z,63.30
2017-12-25T10:48:34.098Z,63.00
2017-12-25T10:51:01.593Z,62.80
2017-12-25T10:53:29.898Z,62.80
2017-12-25T10:55:57.384Z,62.70
2017-12-25T10:58:24.869Z,62.90
2017-12-25T11:00:53.869Z,62.70
2017-12-25T11:03:21.406Z,62.70
2017-12-25T11:05:48.953Z,62.80
2017-12-25T11:08:16.449Z,63.10
2017-12-25T11:10:44.938Z,63.60
2017-12-25T11:13:12.537Z,63.40
2017-12-25T11:15:40.794Z,63.90
2017-12-25T11:18:09.830Z,63.60
2017-12-25T11:20:38.086Z,63.80
2017-12-25T11:23:05.591Z,63.80
2017-12-25T11:25:33.124Z,63.60
2017-12-25T11:28:01.399Z,63.10
2017-12-25T11:30:29.644Z,63.20
2017-12-25T11:32:57.249Z,63.10
2017-12-25T11:35:25.540Z,63.70
2017-12-25T11:37:53.198Z,63.70
2017-12-25T11:40:21.818Z,64.20
2017-12-25T11:42:49.376Z,64.10
2017-12-25T11:45:17.310Z,63.70
2017-12-25T11:47:45.586Z,64.00
2017-12-25T11:50:13.878Z,64.10
2017-12-25T11:52:42.800Z,63.80
2017-12-25T11:55:10.349Z,63.70
2017-12-25T11:57:38.603Z,63.50
2017-12-25T12:00:07.616Z,63.70
2017-12-25T12:02:35.231Z,63.70
2017-12-25T12:05:02.714Z,63.60
2017-12-25T12:07:30.241Z,63.10
2017-12-25T12:09:57.763Z,61.90
2017-12-25T12:12:25.266Z,62.10
2017-12-25T12:14:52.770Z,62.50
2017-12-25T12:17:20.276Z,62.20
2017-12-25T12:19:47.837Z,61.10
2017-12-25T12:22:16.079Z,60.30
2017-12-25T12:24:43.573Z,60.20
2017-12-25T12:27:11.833Z,59.10
2017-12-25T12:29:39.376Z,59.10
2017-12-25T12:32:07.304Z,59.00
2017-12-25T12:34:34.809Z,58.80
2017-12-25T12:37:02.319Z,58.90
2017-12-25T12:39:30.635Z,58.50
2017-12-25T12:41:58.165Z,58.50
2017-12-25T12:44:26.447Z,58.90
2017-12-25T12:46:54.752Z,58.90
2017-12-25T12:49:22.311Z,58.90
2017-12-25T12:51:49.821Z,58.90
2017-12-25T12:54:17.443Z,59.20
2017-12-25T12:56:44.980Z,60.50
2017-12-25T12:59:13.237Z,62.50
2017-12-25T13:01:42.288Z,61.80
2017-12-25T13:04:09.782Z,61.80
2017-12-25T13:06:37.281Z,62.00
2017-12-25T13:09:05.525Z,63.60
2017-12-25T13:11:33.067Z,63.60
2017-12-25T13:14:00.557Z,63.60
2017-12-25T13:16:28.110Z,62.30
2017-12-25T13:18:55.589Z,62.20
2017-12-25T13:21:23.092Z,63.80
2017-12-25T13:23:51.363Z,63.70
2017-12-25T13:26:20.150Z,62.90
2017-12-25T13:28:48.445Z,63.70
2017-12-25T13:31:15.993Z,63.70
2017-12-25T13:33:44.261Z,63.90
2017-12-25T13:36:12.269Z,63.90
2017-12-25T13:38:40.605Z,64.20
2017-12-25T13:41:08.145Z,64.10
2017-12-25T13:43:35.651Z,64.30
2017-12-25T13:46:03.925Z,64.30
2017-12-25T13:48:31.415Z,64.30
2017-12-25T13:50:58.911Z,64.30
2017-12-25T13:53:26.402Z,64.40
2017-12-25T13:55:53.892Z,64.30
2017-12-25T13:58:22.201Z,64.60
2017-12-25T14:00:49.698Z,64.50
2017-12-25T14:03:17.229Z,64.50
2017-12-25T14:05:45.042Z,64.20
2017-12-25T14:08:12.659Z,64.40
2017-12-25T14:10:40.142Z,64.60
2017-12-25T14:13:07.669Z,64.60
2017-12-25T14:15:35.931Z,64.50
2017-12-25T14:18:04.194Z,64.60
2017-12-25T14:20:31.740Z,64.60
2017-12-25T14:22:59.296Z,64.90
2017-12-25T14:25:26.812Z,65.00
2017-12-25T14:27:54.313Z,64.90
2017-12-25T14:30:21.833Z,65.00
2017-12-25T14:32:50.127Z,64.90
2017-12-25T14:35:18.383Z,65.20
2017-12-25T14:37:45.861Z,65.10
2017-12-25T14:40:14.186Z,65.00
2017-12-25T14:42:41.689Z,64.90
2017-12-25T14:45:09.283Z,64.70
2017-12-25T14:47:37.585Z,64.90
2017-12-25T14:50:05.772Z,64.90
2017-12-25T14:52:33.266Z,65.00
2017-12-25T14:55:00.761Z,64.60
2017-12-25T14:57:29.070Z,64.70
2017-12-25T14:59:56.628Z,64.70
2017-12-25T15:02:24.175Z,64.70
2017-12-25T15:04:52.429Z,64.70
2017-12-25T15:07:19.935Z,64.70
2017-12-25T15:09:47.409Z,64.90
2017-12-25T15:12:14.905Z,65.00
2017-12-25T15:14:42.413Z,65.30
2017-12-25T15:17:09.912Z,65.00
2017-12-25T15:19:37.389Z,64.90
2017-12-25T15:22:04.902Z,65.10
2017-12-25T15:24:32.383Z,64.70
2017-12-25T15:26:59.894Z,64.40
2017-12-25T15:29:27.380Z,64.40
2017-12-25T15:31:55.705Z,64.00
2017-12-25T15:34:23.226Z,63.90
2017-12-25T15:36:51.488Z,64.00
2017-12-25T15:39:19.114Z,64.00
2017-12-25T15:41:46.834Z,64.30
2017-12-25T15:44:15.112Z,64.10
2017-12-25T15:46:43.500Z,64.10
2017-12-25T15:49:11.874Z,64.10
2017-12-25T15:51:39.396Z,64.10
2017-12-25T15:54:06.890Z,63.80
2017-12-25T15:56:34.393Z,64.00
2017-12-25T15:59:01.941Z,64.00
2017-12-25T16:01:30.205Z,64.10
2017-12-25T16:03:58.102Z,64.00
2017-12-25T16:06:26.376Z,63.90
2017-12-25T16:08:54.651Z,63.80
2017-12-25T16:11:22.896Z,63.50
2017-12-25T16:13:50.411Z,63.50
2017-12-25T16:16:17.903Z,63.40
2017-12-25T16:18:45.438Z,63.90
2017-12-25T16:21:12.963Z,63.30
2017-12-25T16:23:40.461Z,63.70
2017-12-25T16:26:08.761Z,63.90
2017-12-25T16:28:36.311Z,63.90
2017-12-25T16:31:03.831Z,64.20
2017-12-25T16:33:31.376Z,64.40
2017-12-25T16:35:59.669Z,64.30
2017-12-25T16:38:27.277Z,65.10
2017-12-25T16:40:55.531Z,64.20
2017-12-25T16:43:23.049Z,64.10
2017-12-25T16:45:50.560Z,64.20
2017-12-25T16:48:18.130Z,64.40
2017-12-25T16:50:45.610Z,64.90
2017-12-25T16:53:13.869Z,63.90
2017-12-25T16:55:42.155Z,63.80
2017-12-25T16:58:10.452Z,63.70
2017-12-25T17:00:39.348Z,63.60
2017-12-25T17:03:06.847Z,63.60
2017-12-25T17:05:34.362Z,63.50
2017-12-25T17:08:02.641Z,63.80
2017-12-25T17:10:30.900Z,63.40
2017-12-25T17:12:58.405Z,63.30
2017-12-25T17:15:26.679Z,63.50
2017-12-25T17:17:54.982Z,63.80
2017-12-25T17:20:23.157Z,63.70
2017-12-25T17:22:50.645Z,63.80
2017-12-25T17:25:18.133Z,63.50
2017-12-25T17:27:45.620Z,63.50
2017-12-25T17:30:13.916Z,62.70
2017-12-25T17:32:41.417Z,62.70
2017-12-25T17:35:08.937Z,63.10
2017-12-25T17:37:36.437Z,63.20
2017-12-25T17:40:03.922Z,63.20
2017-12-25T17:42:31.417Z,63.10
2017-12-25T17:44:59.686Z,62.80
2017-12-25T17:47:27.970Z,62.90
2017-12-25T17:49:56.282Z,62.80
2017-12-25T17:52:23.776Z,62.70
2017-12-25T17:54:51.272Z,63.10
2017-12-25T17:57:18.752Z,63.00
2017-12-25T17:59:47.104Z,62.50
2017-12-25T18:02:15.059Z,62.50
2017-12-25T18:04:42.704Z,62.40
2017-12-25T18:07:10.250Z,62.60
2017-12-25T18:09:37.848Z,62.70
2017-12-25T18:12:05.682Z,61.70
2017-12-25T18:14:33.186Z,61.90
2017-12-25T18:17:00.701Z,62.20
2017-12-25T18:19:28.984Z,62.20
2017-12-25T18:21:56.553Z,62.10
2017-12-25T18:24:24.128Z,62.20
2017-12-25T18:26:51.601Z,62.00
2017-12-25T18:29:19.122Z,61.90
2017-12-25T18:31:47.392Z,62.80
2017-12-25T18:34:14.879Z,62.00
2017-12-25T18:36:43.173Z,61.50
2017-12-25T18:39:10.699Z,61.40
2017-12-25T18:41:38.325Z,61.50
2017-12-25T18:44:05.806Z,61.10
2017-12-25T18:46:33.309Z,61.10
2017-12-25T18:49:01.564Z,60.60
2017-12-25T18:51:29.043Z,60.60
2017-12-25T18:53:57.333Z,59.70
2017-12-25T18:56:25.599Z,59.60
2017-12-25T18:58:53.174Z,59.60
2017-12-25T19:01:21.429Z,59.50
2017-12-25T19:03:48.915Z,59.50
2017-12-25T19:06:17.246Z,59.30
2017-12-25T19:08:44.719Z,59.30
2017-12-25T19:11:12.220Z,59.50
2017-12-25T19:13:40.479Z,59.70
2017-12-25T19:16:07.991Z,59.70
2017-12-25T19:18:35.471Z,60.00
2017-12-25T19:21:02.979Z,59.70
2017-12-25T19:23:31.168Z,60.00
2017-12-25T19:25:59.426Z,59.90
2017-12-25T19:28:26.929Z,59.80
2017-12-25T19:30:55.165Z,60.10
2017-12-25T19:33:22.673Z,60.00
2017-12-25T19:35:50.957Z,60.00
2017-12-25T19:38:18.448Z,60.00
2017-12-25T19:40:45.996Z,60.00
2017-12-25T19:43:13.505Z,60.10
2017-12-25T19:45:40.979Z,60.20
2017-12-25T19:48:08.493Z,60.30
2017-12-25T19:50:36.043Z,61.20
2017-12-25T19:53:03.555Z,60.90
2017-12-25T19:55:31.089Z,61.40
2017-12-25T19:57:58.597Z,61.60
2017-12-25T20:00:26.064Z,61.00
2017-12-25T20:02:54.340Z,61.40
2017-12-25T20:05:22.596Z,61.90
2017-12-25T20:07:50.142Z,61.80
2017-12-25T20:10:18.275Z,61.70
2017-12-25T20:12:46.538Z,62.20
2017-12-25T20:15:14.041Z,62.10
2017-12-25T20:17:41.619Z,62.10
2017-12-25T20:20:09.157Z,62.10
2017-12-25T20:22:37.453Z,62.40
2017-12-25T20:25:04.937Z,62.30
2017-12-25T20:27:32.452Z,62.70
2017-12-25T20:30:01.139Z,62.70
2017-12-25T20:32:29.420Z,62.70
2017-12-25T20:34:57.660Z,62.80
2017-12-25T20:37:25.204Z,62.80
2017-12-25T20:39:52.728Z,62.60
2017-12-25T20:42:21.010Z,63.00
2017-12-25T20:44:49.284Z,63.30
2017-12-25T20:47:17.579Z,62.60
2017-12-25T20:49:45.829Z,62.60
2017-12-25T20:52:14.131Z,62.90
2017-12-25T20:54:42.447Z,63.00
2017-12-25T20:57:09.971Z,62.90
2017-12-25T20:59:37.558Z,62.60
2017-12-25T21:02:05.836Z,62.90
2017-12-25T21:04:34.219Z,62.70
2017-12-25T21:07:02.526Z,62.30
2017-12-25T21:09:30.037Z,62.20
2017-12-25T21:11:57.608Z,62.30
2017-12-25T21:14:26.036Z,62.90
2017-12-25T21:16:53.523Z,62.30
2017-12-25T21:19:21.036Z,62.80
2017-12-25T21:21:49.316Z,62.20
2017-12-25T21:24:16.925Z,62.10
2017-12-25T21:26:44.401Z,62.10
2017-12-25T21:29:11.900Z,62.40
2017-12-25T21:31:39.664Z,62.30
2017-12-25T21:34:07.431Z,62.50
2017-12-25T21:36:36.777Z,62.90
2017-12-25T21:39:04.294Z,62.90
2017-12-25T21:41:31.882Z,62.80
2017-12-25T21:44:00.137Z,62.70
2017-12-25T21:46:27.654Z,62.60
2017-12-25T21:48:55.152Z,62.80
2017-12-25T21:51:22.633Z,63.00
2017-12-25T21:53:50.939Z,64.50
2017-12-25T21:56:18.531Z,63.80
2017-12-25T21:58:46.035Z,64.50
2017-12-25T22:01:13.566Z,64.90
2017-12-25T22:03:41.109Z,65.20
2017-12-25T22:06:08.648Z,65.40
2017-12-25T22:08:36.942Z,65.90
2017-12-25T22:11:04.449Z,65.80
2017-12-25T22:13:31.937Z,66.10
2017-12-25T22:15:59.463Z,66.20
2017-12-25T22:18:27.206Z,66.40
2017-12-25T22:20:54.746Z,66.60
2017-12-25T22:23:23.372Z,67.30
2017-12-25T22:25:50.891Z,67.20
2017-12-25T22:28:19.137Z,68.30
2017-12-25T22:30:46.660Z,67.70
2017-12-25T22:33:14.149Z,67.80
2017-12-25T22:35:41.673Z,68.00
2017-12-25T22:38:09.949Z,68.30
2017-12-25T22:40:38.279Z,68.10
2017-12-25T22:43:05.796Z,68.10
2017-12-25T22:45:34.078Z,68.30
2017-12-25T22:48:02.342Z,68.60
2017-12-25T22:50:29.871Z,68.60
2017-12-25T22:52:57.349Z,68.90
2017-12-25T22:55:25.633Z,70.00
2017-12-25T22:57:53.126Z,69.40
2017-12-25T23:00:21.402Z,69.10
2017-12-25T23:02:49.682Z,69.30
2017-12-25T23:05:17.938Z,69.40
2017-12-25T23:07:45.558Z,69.30
2017-12-25T23:10:13.046Z,69.30
2017-12-25T23:12:40.583Z,69.50
2017-12-25T23:15:08.386Z,69.60
2017-12-25T23:17:35.900Z,69.90
2017-12-25T23:20:04.154Z,70.10
2017-12-25T23:22:31.693Z,70.00
2017-12-25T23:24:59.180Z,70.30
2017-12-25T23:27:26.743Z,69.90
2017-12-25T23:29:54.220Z,69.70
2017-12-25T23:32:22.542Z,70.10
2017-12-25T23:34:50.032Z,70.00
2017-12-25T23:37:17.604Z,70.20
2017-12-25T23:39:45.902Z,70.50
2017-12-25T23:42:13.406Z,70.50
2017-12-25T23:44:40.901Z,70.60
2017-12-25T23:47:08.399Z,70.50
2017-12-25T23:49:36.701Z,71.00
2017-12-25T23:52:04.197Z,71.00
2017-12-25T23:54:31.709Z,70.60
2017-12-25T23:57:01.044Z,71.10
2017-12-25T23:59:28.516Z,71.10
